Terminal Aerodrome Forecast
Issued by NWS Burlington, VT

Home | Current Version | Previous Version | Text Only | Print | Product List | Glossary On
Versions: 1 2 3 4 5 6 7 8 9 10 11 12 13 14 15 16 17
000
FTUS41 KBTV 261124
TAFBTV
TAF
KBTV 261124Z 2612/2712 33004KT P6SM SCT040 OVC150
     FM261800 34005KT 1 1/2SM -SN BR OVC025
     FM262300 35007KT 1/2SM SN FG OVC010
     FM270400 35005KT 1 1/2SM -SN BR OVC010
     FM271000 35005KT P6SM OVC010=

USA.gov is the U.S. government's official web portal to all federal, state and local government web resources and services.